sensor_id;sensor_type;location;lat;lon;timestamp;temperature;humidity
28177;DHT22;15461;41.652;9.378;2022-08-05T00:00:35;25.20;99.90
28177;DHT22;15461;41.652;9.378;2022-08-05T00:03:01;25.10;99.90
28177;DHT22;15461;41.652;9.378;2022-08-05T00:05:27;25.10;99.90
28177;DHT22;15461;41.652;9.378;2022-08-05T00:07:53;25.10;99.90
28177;DHT22;15461;41.652;9.378;2022-08-05T00:10:19;25.00;99.90
28177;DHT22;15461;41.652;9.378;2022-08-05T00:12:47;25.00;99.90
28177;DHT22;15461;41.652;9.378;2022-08-05T00:15:13;24.90;99.90
28177;DHT22;15461;41.652;9.378;2022-08-05T00:17:39;24.90;99.90
28177;DHT22;15461;41.652;9.378;2022-08-05T00:20:05;24.90;99.90
28177;DHT22;15461;41.652;9.378;2022-08-05T00:22:31;24.80;99.90
28177;DHT22;15461;41.652;9.378;2022-08-05T00:24:57;24.80;99.90
28177;DHT22;15461;41.652;9.378;2022-08-05T00:27:23;24.80;99.90
28177;DHT22;15461;41.652;9.378;2022-08-05T00:29:49;24.80;99.90
28177;DHT22;15461;41.652;9.378;2022-08-05T00:32:15;24.80;99.90
28177;DHT22;15461;41.652;9.378;2022-08-05T00:34:42;24.80;99.90
28177;DHT22;15461;41.652;9.378;2022-08-05T00:37:08;24.80;99.90
28177;DHT22;15461;41.652;9.378;2022-08-05T00:39:34;24.80;99.90
28177;DHT22;15461;41.652;9.378;2022-08-05T00:42:00;24.80;99.90
28177;DHT22;15461;41.652;9.378;2022-08-05T00:44:26;24.70;99.90
28177;DHT22;15461;41.652;9.378;2022-08-05T00:46:52;24.70;99.90
28177;DHT22;15461;41.652;9.378;2022-08-05T00:49:18;24.70;99.90
28177;DHT22;15461;41.652;9.378;2022-08-05T00:51:45;24.60;99.90
28177;DHT22;15461;41.652;9.378;2022-08-05T00:54:12;24.60;99.90
28177;DHT22;15461;41.652;9.378;2022-08-05T00:56:38;24.60;99.90
28177;DHT22;15461;41.652;9.378;2022-08-05T00:59:05;24.60;99.90
28177;DHT22;15461;41.652;9.378;2022-08-05T01:01:32;24.60;99.90
28177;DHT22;15461;41.652;9.378;2022-08-05T01:03:57;24.50;99.90
28177;DHT22;15461;41.652;9.378;2022-08-05T01:06:23;24.50;99.90
28177;DHT22;15461;41.652;9.378;2022-08-05T01:08:49;24.50;99.90
28177;DHT22;15461;41.652;9.378;2022-08-05T01:11:21;24.50;99.90
28177;DHT22;15461;41.652;9.378;2022-08-05T01:19:29;24.30;99.90
28177;DHT22;15461;41.652;9.378;2022-08-05T01:30:08;24.20;99.90
28177;DHT22;15461;41.652;9.378;2022-08-05T01:32:37;24.20;99.90
28177;DHT22;15461;41.652;9.378;2022-08-05T01:35:06;24.20;99.90
28177;DHT22;15461;41.652;9.378;2022-08-05T01:40:09;24.20;99.90
28177;DHT22;15461;41.652;9.378;2022-08-05T01:42:38;24.10;99.90
28177;DHT22;15461;41.652;9.378;2022-08-05T01:45:06;24.10;99.90
28177;DHT22;15461;41.652;9.378;2022-08-05T01:47:34;24.10;99.90
28177;DHT22;15461;41.652;9.378;2022-08-05T01:50:16;24.00;99.90
28177;DHT22;15461;41.652;9.378;2022-08-05T01:52:44;24.00;99.90
28177;DHT22;15461;41.652;9.378;2022-08-05T01:55:12;24.00;99.90
28177;DHT22;15461;41.652;9.378;2022-08-05T01:57:42;24.00;99.90
28177;DHT22;15461;41.652;9.378;2022-08-05T02:00:09;24.00;99.90
28177;DHT22;15461;41.652;9.378;2022-08-05T02:02:38;24.00;99.90
28177;DHT22;15461;41.652;9.378;2022-08-05T02:05:06;24.00;99.90
28177;DHT22;15461;41.652;9.378;2022-08-05T02:07:34;24.00;99.90
28177;DHT22;15461;41.652;9.378;2022-08-05T02:10:01;24.00;99.90
28177;DHT22;15461;41.652;9.378;2022-08-05T02:12:36;23.90;99.90
28177;DHT22;15461;41.652;9.378;2022-08-05T02:15:05;23.90;99.90
28177;DHT22;15461;41.652;9.378;2022-08-05T02:17:37;23.90;99.90
28177;DHT22;15461;41.652;9.378;2022-08-05T02:20:12;23.90;99.90
28177;DHT22;15461;41.652;9.378;2022-08-05T02:22:42;23.90;99.90
28177;DHT22;15461;41.652;9.378;2022-08-05T02:25:25;23.80;99.90
28177;DHT22;15461;41.652;9.378;2022-08-05T02:27:53;23.80;99.90
28177;DHT22;15461;41.652;9.378;2022-08-05T02:30:22;23.80;99.90
28177;DHT22;15461;41.652;9.378;2022-08-05T02:32:51;23.80;99.90
28177;DHT22;15461;41.652;9.378;2022-08-05T02:35:23;23.80;99.90
28177;DHT22;15461;41.652;9.378;2022-08-05T02:37:53;23.80;99.90
28177;DHT22;15461;41.652;9.378;2022-08-05T02:40:20;23.80;99.90
28177;DHT22;15461;41.652;9.378;2022-08-05T02:42:48;23.80;99.90
28177;DHT22;15461;41.652;9.378;2022-08-05T02:45:15;23.80;99.90
28177;DHT22;15461;41.652;9.378;2022-08-05T02:47:42;23.80;99.90
28177;DHT22;15461;41.652;9.378;2022-08-05T02:50:11;23.80;99.90
28177;DHT22;15461;41.652;9.378;2022-08-05T02:52:40;23.80;99.90
28177;DHT22;15461;41.652;9.378;2022-08-05T02:55:07;23.80;99.90
28177;DHT22;15461;41.652;9.378;2022-08-05T02:57:34;23.80;99.90
28177;DHT22;15461;41.652;9.378;2022-08-05T03:00:00;23.80;99.90
28177;DHT22;15461;41.652;9.378;2022-08-05T03:02:33;23.80;99.90
28177;DHT22;15461;41.652;9.378;2022-08-05T03:05:02;23.70;99.90
28177;DHT22;15461;41.652;9.378;2022-08-05T03:07:30;23.70;99.90
28177;DHT22;15461;41.652;9.378;2022-08-05T03:09:57;23.80;99.90
28177;DHT22;15461;41.652;9.378;2022-08-05T03:12:35;23.70;99.90
28177;DHT22;15461;41.652;9.378;2022-08-05T03:15:03;23.70;99.90
28177;DHT22;15461;41.652;9.378;2022-08-05T03:17:29;23.70;99.90
28177;DHT22;15461;41.652;9.378;2022-08-05T03:19:55;23.60;99.90
28177;DHT22;15461;41.652;9.378;2022-08-05T03:22:21;23.60;99.90
28177;DHT22;15461;41.652;9.378;2022-08-05T03:24:48;23.70;99.90
28177;DHT22;15461;41.652;9.378;2022-08-05T03:27:15;23.70;99.90
28177;DHT22;15461;41.652;9.378;2022-08-05T03:29:41;23.70;99.90
28177;DHT22;15461;41.652;9.378;2022-08-05T03:32:07;23.70;99.90
28177;DHT22;15461;41.652;9.378;2022-08-05T03:34:34;23.60;99.90
28177;DHT22;15461;41.652;9.378;2022-08-05T03:37:00;23.60;99.90
28177;DHT22;15461;41.652;9.378;2022-08-05T03:39:27;23.50;99.90
28177;DHT22;15461;41.652;9.378;2022-08-05T03:41:54;23.50;99.90
28177;DHT22;15461;41.652;9.378;2022-08-05T03:44:21;23.50;99.90
28177;DHT22;15461;41.652;9.378;2022-08-05T03:46:47;23.50;99.90
28177;DHT22;15461;41.652;9.378;2022-08-05T03:49:13;23.50;99.90
28177;DHT22;15461;41.652;9.378;2022-08-05T03:51:42;23.60;99.90
28177;DHT22;15461;41.652;9.378;2022-08-05T03:54:36;23.50;99.90
28177;DHT22;15461;41.652;9.378;2022-08-05T03:57:05;23.50;99.90
28177;DHT22;15461;41.652;9.378;2022-08-05T03:59:39;23.50;99.90
28177;DHT22;15461;41.652;9.378;2022-08-05T04:02:06;23.50;99.90
28177;DHT22;15461;41.652;9.378;2022-08-05T04:04:33;23.50;99.90
28177;DHT22;15461;41.652;9.378;2022-08-05T04:07:00;23.50;99.90
28177;DHT22;15461;41.652;9.378;2022-08-05T04:09:28;23.40;99.90
28177;DHT22;15461;41.652;9.378;2022-08-05T04:11:55;23.50;99.90
28177;DHT22;15461;41.652;9.378;2022-08-05T04:14:21;23.50;99.90
28177;DHT22;15461;41.652;9.378;2022-08-05T04:16:47;23.50;99.90
28177;DHT22;15461;41.652;9.378;2022-08-05T04:19:13;23.40;99.90
28177;DHT22;15461;41.652;9.378;2022-08-05T04:21:40;23.40;99.90
28177;DHT22;15461;41.652;9.378;2022-08-05T04:24:06;23.40;99.90
28177;DHT22;15461;41.652;9.378;2022-08-05T04:26:32;23.50;99.90
28177;DHT22;15461;41.652;9.378;2022-08-05T04:28:59;23.40;99.90
28177;DHT22;15461;41.652;9.378;2022-08-05T04:31:25;23.40;99.90
28177;DHT22;15461;41.652;9.378;2022-08-05T04:33:51;23.40;99.90
28177;DHT22;15461;41.652;9.378;2022-08-05T04:36:17;23.40;99.90
28177;DHT22;15461;41.652;9.378;2022-08-05T04:38:44;23.40;99.90
28177;DHT22;15461;41.652;9.378;2022-08-05T04:41:10;23.40;99.90
28177;DHT22;15461;41.652;9.378;2022-08-05T04:43:36;23.30;99.90
28177;DHT22;15461;41.652;9.378;2022-08-05T04:46:03;23.40;99.90
28177;DHT22;15461;41.652;9.378;2022-08-05T04:48:29;23.30;99.90
28177;DHT22;15461;41.652;9.378;2022-08-05T04:50:55;23.30;99.90
28177;DHT22;15461;41.652;9.378;2022-08-05T04:53:21;23.40;99.90
28177;DHT22;15461;41.652;9.378;2022-08-05T04:55:47;23.40;99.90
28177;DHT22;15461;41.652;9.378;2022-08-05T04:58:15;23.40;99.90
28177;DHT22;15461;41.652;9.378;2022-08-05T05:00:42;23.40;99.90
28177;DHT22;15461;41.652;9.378;2022-08-05T05:03:08;23.40;99.90
28177;DHT22;15461;41.652;9.378;2022-08-05T05:05:36;23.40;99.90
28177;DHT22;15461;41.652;9.378;2022-08-05T05:08:07;23.40;99.90
28177;DHT22;15461;41.652;9.378;2022-08-05T05:10:41;23.50;99.90
28177;DHT22;15461;41.652;9.378;2022-08-05T05:13:12;23.50;99.90
28177;DHT22;15461;41.652;9.378;2022-08-05T05:15:39;23.60;99.90
28177;DHT22;15461;41.652;9.378;2022-08-05T05:18:05;23.60;99.90
28177;DHT22;15461;41.652;9.378;2022-08-05T05:20:32;23.60;99.90
28177;DHT22;15461;41.652;9.378;2022-08-05T05:22:59;23.70;99.90
28177;DHT22;15461;41.652;9.378;2022-08-05T05:25:26;23.80;99.90
28177;DHT22;15461;41.652;9.378;2022-08-05T05:27:52;23.80;99.90
28177;DHT22;15461;41.652;9.378;2022-08-05T05:30:19;23.90;99.90
28177;DHT22;15461;41.652;9.378;2022-08-05T05:32:45;24.00;99.90
28177;DHT22;15461;41.652;9.378;2022-08-05T05:35:10;24.10;99.90
28177;DHT22;15461;41.652;9.378;2022-08-05T05:37:54;24.10;99.90
28177;DHT22;15461;41.652;9.378;2022-08-05T05:40:22;24.20;99.90
28177;DHT22;15461;41.652;9.378;2022-08-05T05:42:48;24.30;99.90
28177;DHT22;15461;41.652;9.378;2022-08-05T05:45:15;24.50;99.90
28177;DHT22;15461;41.652;9.378;2022-08-05T05:47:42;24.50;99.90
28177;DHT22;15461;41.652;9.378;2022-08-05T05:50:11;24.60;99.90
28177;DHT22;15461;41.652;9.378;2022-08-05T05:52:37;24.80;99.90
28177;DHT22;15461;41.652;9.378;2022-08-05T05:55:06;24.90;99.90
28177;DHT22;15461;41.652;9.378;2022-08-05T05:57:34;25.00;99.90
28177;DHT22;15461;41.652;9.378;2022-08-05T06:00:01;25.20;99.90
28177;DHT22;15461;41.652;9.378;2022-08-05T06:02:27;25.40;99.90
28177;DHT22;15461;41.652;9.378;2022-08-05T06:04:52;25.60;99.90
28177;DHT22;15461;41.652;9.378;2022-08-05T06:07:18;25.80;99.90
28177;DHT22;15461;41.652;9.378;2022-08-05T06:09:44;26.00;99.90
28177;DHT22;15461;41.652;9.378;2022-08-05T06:12:10;26.30;99.90
28177;DHT22;15461;41.652;9.378;2022-08-05T06:14:36;26.40;99.90
28177;DHT22;15461;41.652;9.378;2022-08-05T06:17:03;26.60;99.90
28177;DHT22;15461;41.652;9.378;2022-08-05T06:19:29;26.80;99.90
28177;DHT22;15461;41.652;9.378;2022-08-05T06:21:55;27.00;99.90
28177;DHT22;15461;41.652;9.378;2022-08-05T06:24:21;27.20;99.90
28177;DHT22;15461;41.652;9.378;2022-08-05T06:26:47;27.40;99.90
28177;DHT22;15461;41.652;9.378;2022-08-05T06:29:13;27.60;99.90
28177;DHT22;15461;41.652;9.378;2022-08-05T06:31:38;27.70;99.90
28177;DHT22;15461;41.652;9.378;2022-08-05T06:34:04;27.80;99.90
28177;DHT22;15461;41.652;9.378;2022-08-05T06:36:31;28.00;99.90
28177;DHT22;15461;41.652;9.378;2022-08-05T06:38:57;28.10;99.90
28177;DHT22;15461;41.652;9.378;2022-08-05T06:41:23;28.20;99.90
28177;DHT22;15461;41.652;9.378;2022-08-05T06:43:48;28.40;99.90
28177;DHT22;15461;41.652;9.378;2022-08-05T06:46:15;28.50;99.90
28177;DHT22;15461;41.652;9.378;2022-08-05T06:48:41;28.70;99.90
28177;DHT22;15461;41.652;9.378;2022-08-05T06:51:07;28.80;99.90
28177;DHT22;15461;41.652;9.378;2022-08-05T06:53:33;29.00;99.90
28177;DHT22;15461;41.652;9.378;2022-08-05T06:56:00;29.10;99.90
28177;DHT22;15461;41.652;9.378;2022-08-05T06:58:28;29.20;99.90
28177;DHT22;15461;41.652;9.378;2022-08-05T07:00:56;29.30;99.90
28177;DHT22;15461;41.652;9.378;2022-08-05T07:03:22;29.40;99.90
28177;DHT22;15461;41.652;9.378;2022-08-05T07:05:48;29.40;99.90
28177;DHT22;15461;41.652;9.378;2022-08-05T07:08:14;29.60;99.90
28177;DHT22;15461;41.652;9.378;2022-08-05T07:10:40;29.70;99.90
28177;DHT22;15461;41.652;9.378;2022-08-05T07:13:06;29.80;99.90
28177;DHT22;15461;41.652;9.378;2022-08-05T07:15:51;29.90;99.90
28177;DHT22;15461;41.652;9.378;2022-08-05T07:18:35;30.00;99.90
28177;DHT22;15461;41.652;9.378;2022-08-05T07:21:01;30.00;99.90
28177;DHT22;15461;41.652;9.378;2022-08-05T07:23:27;30.20;99.90
28177;DHT22;15461;41.652;9.378;2022-08-05T07:25:53;30.40;99.90
28177;DHT22;15461;41.652;9.378;2022-08-05T07:28:19;30.60;99.90
28177;DHT22;15461;41.652;9.378;2022-08-05T07:30:45;30.60;99.90
28177;DHT22;15461;41.652;9.378;2022-08-05T07:33:11;30.70;99.90
28177;DHT22;15461;41.652;9.378;2022-08-05T07:35:39;30.80;99.90
28177;DHT22;15461;41.652;9.378;2022-08-05T07:38:05;30.90;99.90
28177;DHT22;15461;41.652;9.378;2022-08-05T07:40:31;30.90;99.90
28177;DHT22;15461;41.652;9.378;2022-08-05T07:42:57;30.90;99.90
28177;DHT22;15461;41.652;9.378;2022-08-05T07:45:23;31.00;99.90
28177;DHT22;15461;41.652;9.378;2022-08-05T07:47:49;31.00;99.90
28177;DHT22;15461;41.652;9.378;2022-08-05T07:50:15;31.10;99.90
28177;DHT22;15461;41.652;9.378;2022-08-05T07:52:42;31.10;99.90
28177;DHT22;15461;41.652;9.378;2022-08-05T07:55:09;31.20;99.90
28177;DHT22;15461;41.652;9.378;2022-08-05T07:57:35;31.20;99.90
28177;DHT22;15461;41.652;9.378;2022-08-05T08:00:04;31.20;99.90
28177;DHT22;15461;41.652;9.378;2022-08-05T08:02:37;31.20;99.90
28177;DHT22;15461;41.652;9.378;2022-08-05T08:05:03;31.30;99.90
28177;DHT22;15461;41.652;9.378;2022-08-05T08:07:29;31.30;99.90
28177;DHT22;15461;41.652;9.378;2022-08-05T08:09:55;31.40;99.90
28177;DHT22;15461;41.652;9.378;2022-08-05T08:12:21;31.30;99.90
28177;DHT22;15461;41.652;9.378;2022-08-05T08:14:48;31.30;99.90
28177;DHT22;15461;41.652;9.378;2022-08-05T08:17:14;31.30;99.90
28177;DHT22;15461;41.652;9.378;2022-08-05T08:19:40;31.30;99.90
28177;DHT22;15461;41.652;9.378;2022-08-05T08:22:08;31.30;99.90
28177;DHT22;15461;41.652;9.378;2022-08-05T08:24:35;31.30;99.90
28177;DHT22;15461;41.652;9.378;2022-08-05T08:27:02;31.50;99.90
28177;DHT22;15461;41.652;9.378;2022-08-05T08:29:27;31.70;99.90
28177;DHT22;15461;41.652;9.378;2022-08-05T08:31:53;31.70;99.90
28177;DHT22;15461;41.652;9.378;2022-08-05T08:34:23;31.70;99.90
28177;DHT22;15461;41.652;9.378;2022-08-05T08:36:49;31.60;99.90
28177;DHT22;15461;41.652;9.378;2022-08-05T08:39:15;31.50;99.90
28177;DHT22;15461;41.652;9.378;2022-08-05T08:41:47;31.50;99.90
28177;DHT22;15461;41.652;9.378;2022-08-05T08:44:15;31.50;99.90
28177;DHT22;15461;41.652;9.378;2022-08-05T08:46:43;31.60;99.90
28177;DHT22;15461;41.652;9.378;2022-08-05T08:49:13;31.70;99.90
28177;DHT22;15461;41.652;9.378;2022-08-05T08:51:40;31.70;99.90
28177;DHT22;15461;41.652;9.378;2022-08-05T08:54:07;32.00;99.90
28177;DHT22;15461;41.652;9.378;2022-08-05T08:56:38;32.00;99.90
28177;DHT22;15461;41.652;9.378;2022-08-05T08:59:04;31.90;99.90
28177;DHT22;15461;41.652;9.378;2022-08-05T09:01:31;32.20;99.90
28177;DHT22;15461;41.652;9.378;2022-08-05T09:03:57;32.40;99.90
28177;DHT22;15461;41.652;9.378;2022-08-05T09:06:29;32.40;99.90
28177;DHT22;15461;41.652;9.378;2022-08-05T09:08:57;32.60;99.90
28177;DHT22;15461;41.652;9.378;2022-08-05T09:11:24;32.40;99.90
28177;DHT22;15461;41.652;9.378;2022-08-05T09:13:50;32.40;99.90
28177;DHT22;15461;41.652;9.378;2022-08-05T09:16:18;32.40;99.90
28177;DHT22;15461;41.652;9.378;2022-08-05T09:18:44;32.40;99.90
28177;DHT22;15461;41.652;9.378;2022-08-05T09:21:10;32.40;99.90
28177;DHT22;15461;41.652;9.378;2022-08-05T09:23:36;32.40;99.90
28177;DHT22;15461;41.652;9.378;2022-08-05T09:26:09;32.40;99.90
28177;DHT22;15461;41.652;9.378;2022-08-05T09:28:38;32.30;99.90
28177;DHT22;15461;41.652;9.378;2022-08-05T09:31:06;32.30;99.90
28177;DHT22;15461;41.652;9.378;2022-08-05T09:36:18;32.60;99.90
28177;DHT22;15461;41.652;9.378;2022-08-05T09:39:00;32.70;99.90
28177;DHT22;15461;41.652;9.378;2022-08-05T09:41:27;32.70;99.90
28177;DHT22;15461;41.652;9.378;2022-08-05T09:43:53;32.60;99.90
28177;DHT22;15461;41.652;9.378;2022-08-05T09:46:32;32.70;99.90
28177;DHT22;15461;41.652;9.378;2022-08-05T09:48:59;32.90;99.90
28177;DHT22;15461;41.652;9.378;2022-08-05T09:51:38;32.80;99.90
28177;DHT22;15461;41.652;9.378;2022-08-05T09:54:07;32.90;99.90
28177;DHT22;15461;41.652;9.378;2022-08-05T09:56:37;32.80;99.90
28177;DHT22;15461;41.652;9.378;2022-08-05T09:59:09;33.00;99.90
28177;DHT22;15461;41.652;9.378;2022-08-05T10:01:39;32.90;99.90
28177;DHT22;15461;41.652;9.378;2022-08-05T10:04:11;32.80;99.90
28177;DHT22;15461;41.652;9.378;2022-08-05T10:06:40;32.80;99.90
28177;DHT22;15461;41.652;9.378;2022-08-05T10:09:15;32.90;99.90
28177;DHT22;15461;41.652;9.378;2022-08-05T10:11:42;33.00;99.90
28177;DHT22;15461;41.652;9.378;2022-08-05T10:14:30;33.00;99.90
28177;DHT22;15461;41.652;9.378;2022-08-05T10:17:13;33.30;99.90
28177;DHT22;15461;41.652;9.378;2022-08-05T10:19:40;33.10;99.90
28177;DHT22;15461;41.652;9.378;2022-08-05T10:22:07;33.10;99.90
28177;DHT22;15461;41.652;9.378;2022-08-05T10:24:33;33.10;99.90
28177;DHT22;15461;41.652;9.378;2022-08-05T10:27:00;33.00;99.90
28177;DHT22;15461;41.652;9.378;2022-08-05T10:29:26;33.20;99.90
28177;DHT22;15461;41.652;9.378;2022-08-05T10:31:54;33.40;99.90
28177;DHT22;15461;41.652;9.378;2022-08-05T10:34:21;33.40;99.90
28177;DHT22;15461;41.652;9.378;2022-08-05T10:36:47;33.50;99.90
28177;DHT22;15461;41.652;9.378;2022-08-05T10:39:19;33.40;99.90
28177;DHT22;15461;41.652;9.378;2022-08-05T10:41:54;33.50;99.90
28177;DHT22;15461;41.652;9.378;2022-08-05T10:44:23;33.70;99.90
28177;DHT22;15461;41.652;9.378;2022-08-05T10:46:51;33.60;99.90
28177;DHT22;15461;41.652;9.378;2022-08-05T10:49:18;33.30;99.90
28177;DHT22;15461;41.652;9.378;2022-08-05T10:54:12;33.40;99.90
28177;DHT22;15461;41.652;9.378;2022-08-05T10:56:47;33.60;99.90
28177;DHT22;15461;41.652;9.378;2022-08-05T10:59:18;33.80;99.90
28177;DHT22;15461;41.652;9.378;2022-08-05T11:01:44;33.70;99.90
28177;DHT22;15461;41.652;9.378;2022-08-05T11:04:21;33.50;99.90
28177;DHT22;15461;41.652;9.378;2022-08-05T11:09:49;32.90;99.90
28177;DHT22;15461;41.652;9.378;2022-08-05T11:15:06;32.40;99.90
28177;DHT22;15461;41.652;9.378;2022-08-05T11:17:34;32.40;99.90
28177;DHT22;15461;41.652;9.378;2022-08-05T11:20:07;32.50;99.90
28177;DHT22;15461;41.652;9.378;2022-08-05T11:22:38;32.30;99.90
28177;DHT22;15461;41.652;9.378;2022-08-05T11:25:31;32.50;99.90
28177;DHT22;15461;41.652;9.378;2022-08-05T11:36:09;33.00;99.90
28177;DHT22;15461;41.652;9.378;2022-08-05T11:41:05;33.50;99.90
28177;DHT22;15461;41.652;9.378;2022-08-05T11:43:32;33.50;99.90
28177;DHT22;15461;41.652;9.378;2022-08-05T11:46:01;33.80;99.90
28177;DHT22;15461;41.652;9.378;2022-08-05T11:48:27;33.70;99.90
28177;DHT22;15461;41.652;9.378;2022-08-05T11:50:54;33.70;99.90
28177;DHT22;15461;41.652;9.378;2022-08-05T11:53:21;33.70;99.90
28177;DHT22;15461;41.652;9.378;2022-08-05T11:55:55;33.70;99.90
28177;DHT22;15461;41.652;9.378;2022-08-05T11:58:35;33.90;99.90
28177;DHT22;15461;41.652;9.378;2022-08-05T12:01:06;33.90;99.90
28177;DHT22;15461;41.652;9.378;2022-08-05T12:03:53;33.90;99.90
28177;DHT22;15461;41.652;9.378;2022-08-05T12:06:21;33.60;99.90
28177;DHT22;15461;41.652;9.378;2022-08-05T12:08:51;33.70;99.90
28177;DHT22;15461;41.652;9.378;2022-08-05T12:11:26;33.80;99.90
28177;DHT22;15461;41.652;9.378;2022-08-05T12:14:01;34.10;99.90
28177;DHT22;15461;41.652;9.378;2022-08-05T12:16:32;34.00;99.90
28177;DHT22;15461;41.652;9.378;2022-08-05T12:18:58;33.60;99.90
28177;DHT22;15461;41.652;9.378;2022-08-05T12:21:30;33.40;99.90
28177;DHT22;15461;41.652;9.378;2022-08-05T12:24:00;33.40;99.90
28177;DHT22;15461;41.652;9.378;2022-08-05T12:26:34;33.50;99.90
28177;DHT22;15461;41.652;9.378;2022-08-05T12:29:03;33.80;99.90
28177;DHT22;15461;41.652;9.378;2022-08-05T12:31:31;33.90;99.90
28177;DHT22;15461;41.652;9.378;2022-08-05T12:34:00;33.60;99.90
28177;DHT22;15461;41.652;9.378;2022-08-05T12:36:26;33.30;99.90
28177;DHT22;15461;41.652;9.378;2022-08-05T12:38:52;33.40;99.90
28177;DHT22;15461;41.652;9.378;2022-08-05T12:41:18;33.60;99.90
28177;DHT22;15461;41.652;9.378;2022-08-05T12:43:55;33.50;99.90
28177;DHT22;15461;41.652;9.378;2022-08-05T12:46:25;33.30;99.90
28177;DHT22;15461;41.652;9.378;2022-08-05T12:49:12;33.10;99.90
28177;DHT22;15461;41.652;9.378;2022-08-05T12:51:55;32.80;99.90
28177;DHT22;15461;41.652;9.378;2022-08-05T12:54:24;32.40;99.90
28177;DHT22;15461;41.652;9.378;2022-08-05T12:57:04;32.10;99.90
28177;DHT22;15461;41.652;9.378;2022-08-05T12:59:32;32.10;99.90
28177;DHT22;15461;41.652;9.378;2022-08-05T13:01:59;32.30;99.90
28177;DHT22;15461;41.652;9.378;2022-08-05T13:04:30;32.20;99.90
28177;DHT22;15461;41.652;9.378;2022-08-05T13:07:08;32.20;99.90
28177;DHT22;15461;41.652;9.378;2022-08-05T13:09:54;32.40;99.90
28177;DHT22;15461;41.652;9.378;2022-08-05T13:12:22;32.60;99.90
28177;DHT22;15461;41.652;9.378;2022-08-05T13:14:51;32.70;99.90
28177;DHT22;15461;41.652;9.378;2022-08-05T13:17:20;32.60;99.90
28177;DHT22;15461;41.652;9.378;2022-08-05T13:22:36;32.70;99.90
28177;DHT22;15461;41.652;9.378;2022-08-05T13:25:10;32.90;99.90
28177;DHT22;15461;41.652;9.378;2022-08-05T13:27:41;32.90;99.90
28177;DHT22;15461;41.652;9.378;2022-08-05T13:30:09;33.10;99.90
28177;DHT22;15461;41.652;9.378;2022-08-05T13:32:36;33.20;99.90
28177;DHT22;15461;41.652;9.378;2022-08-05T13:35:02;33.10;99.90
28177;DHT22;15461;41.652;9.378;2022-08-05T13:37:28;33.00;99.90
28177;DHT22;15461;41.652;9.378;2022-08-05T13:39:54;33.20;99.90
28177;DHT22;15461;41.652;9.378;2022-08-05T13:42:23;33.10;99.90
28177;DHT22;15461;41.652;9.378;2022-08-05T13:44:50;33.00;99.90
28177;DHT22;15461;41.652;9.378;2022-08-05T13:47:17;32.90;99.90
28177;DHT22;15461;41.652;9.378;2022-08-05T13:49:43;32.50;99.90
28177;DHT22;15461;41.652;9.378;2022-08-05T13:52:19;32.30;99.90
28177;DHT22;15461;41.652;9.378;2022-08-05T13:54:46;32.20;99.90
28177;DHT22;15461;41.652;9.378;2022-08-05T13:57:12;32.40;99.90
28177;DHT22;15461;41.652;9.378;2022-08-05T13:59:40;32.30;99.90
28177;DHT22;15461;41.652;9.378;2022-08-05T14:02:07;32.30;99.90
28177;DHT22;15461;41.652;9.378;2022-08-05T14:04:38;32.30;99.90
28177;DHT22;15461;41.652;9.378;2022-08-05T14:07:27;32.50;99.90
28177;DHT22;15461;41.652;9.378;2022-08-05T14:09:53;32.70;99.90
28177;DHT22;15461;41.652;9.378;2022-08-05T14:12:19;32.80;99.90
28177;DHT22;15461;41.652;9.378;2022-08-05T14:14:45;32.90;99.90
28177;DHT22;15461;41.652;9.378;2022-08-05T14:17:11;33.10;99.90
28177;DHT22;15461;41.652;9.378;2022-08-05T14:19:39;33.30;99.90
28177;DHT22;15461;41.652;9.378;2022-08-05T14:22:05;33.60;99.90
28177;DHT22;15461;41.652;9.378;2022-08-05T14:24:31;33.70;99.90
28177;DHT22;15461;41.652;9.378;2022-08-05T14:26:57;33.90;99.90
28177;DHT22;15461;41.652;9.378;2022-08-05T14:29:23;34.00;99.90
28177;DHT22;15461;41.652;9.378;2022-08-05T14:31:49;33.90;99.90
28177;DHT22;15461;41.652;9.378;2022-08-05T14:34:15;33.80;99.90
28177;DHT22;15461;41.652;9.378;2022-08-05T14:36:41;33.80;99.90
28177;DHT22;15461;41.652;9.378;2022-08-05T14:39:07;33.70;99.90
28177;DHT22;15461;41.652;9.378;2022-08-05T14:41:33;33.60;99.90
28177;DHT22;15461;41.652;9.378;2022-08-05T14:43:59;33.70;99.90
28177;DHT22;15461;41.652;9.378;2022-08-05T14:46:27;33.90;99.90
28177;DHT22;15461;41.652;9.378;2022-08-05T14:48:53;34.00;99.90
28177;DHT22;15461;41.652;9.378;2022-08-05T14:51:19;34.20;99.90
28177;DHT22;15461;41.652;9.378;2022-08-05T14:53:46;34.30;99.90
28177;DHT22;15461;41.652;9.378;2022-08-05T14:56:14;34.60;99.90
28177;DHT22;15461;41.652;9.378;2022-08-05T14:58:41;34.70;99.90
28177;DHT22;15461;41.652;9.378;2022-08-05T15:01:07;34.60;99.90
28177;DHT22;15461;41.652;9.378;2022-08-05T15:03:33;34.30;99.90
28177;DHT22;15461;41.652;9.378;2022-08-05T15:05:59;34.00;99.90
28177;DHT22;15461;41.652;9.378;2022-08-05T15:08:25;33.30;99.90
28177;DHT22;15461;41.652;9.378;2022-08-05T15:10:51;32.80;99.90
28177;DHT22;15461;41.652;9.378;2022-08-05T15:13:18;32.40;99.90
28177;DHT22;15461;41.652;9.378;2022-08-05T15:15:44;32.50;99.90
28177;DHT22;15461;41.652;9.378;2022-08-05T15:18:10;32.50;99.90
28177;DHT22;15461;41.652;9.378;2022-08-05T15:20:36;32.70;99.90
28177;DHT22;15461;41.652;9.378;2022-08-05T15:23:05;32.70;99.90
28177;DHT22;15461;41.652;9.378;2022-08-05T15:25:31;32.70;99.90
28177;DHT22;15461;41.652;9.378;2022-08-05T15:27:58;32.60;99.90
28177;DHT22;15461;41.652;9.378;2022-08-05T15:30:24;32.40;99.90
28177;DHT22;15461;41.652;9.378;2022-08-05T15:32:50;32.30;99.90
28177;DHT22;15461;41.652;9.378;2022-08-05T15:35:16;32.50;99.90
28177;DHT22;15461;41.652;9.378;2022-08-05T15:37:42;32.70;99.90
28177;DHT22;15461;41.652;9.378;2022-08-05T15:40:08;32.60;99.90
28177;DHT22;15461;41.652;9.378;2022-08-05T15:42:34;32.60;99.90
28177;DHT22;15461;41.652;9.378;2022-08-05T15:45:00;32.60;99.90
28177;DHT22;15461;41.652;9.378;2022-08-05T15:47:26;32.60;99.90
28177;DHT22;15461;41.652;9.378;2022-08-05T15:49:52;32.70;99.90
28177;DHT22;15461;41.652;9.378;2022-08-05T15:52:18;32.70;99.90
28177;DHT22;15461;41.652;9.378;2022-08-05T15:54:45;32.90;99.90
28177;DHT22;15461;41.652;9.378;2022-08-05T15:57:11;33.10;99.90
28177;DHT22;15461;41.652;9.378;2022-08-05T15:59:38;33.10;99.90
28177;DHT22;15461;41.652;9.378;2022-08-05T16:02:05;33.10;99.90
28177;DHT22;15461;41.652;9.378;2022-08-05T16:04:31;33.00;99.90
28177;DHT22;15461;41.652;9.378;2022-08-05T16:06:57;32.90;99.90
28177;DHT22;15461;41.652;9.378;2022-08-05T16:09:23;33.10;99.90
28177;DHT22;15461;41.652;9.378;2022-08-05T16:11:50;33.10;99.90
28177;DHT22;15461;41.652;9.378;2022-08-05T16:14:16;33.10;99.90
28177;DHT22;15461;41.652;9.378;2022-08-05T16:16:42;33.20;99.90